sensor_id;sensor_type;location;lat;lon;timestamp;temperature;humidity
23703;DHT22;12030;50.376;8.762;2024-03-22T00:01:45;7.10;99.90
23703;DHT22;12030;50.376;8.762;2024-03-22T00:04:11;7.10;99.90
23703;DHT22;12030;50.376;8.762;2024-03-22T00:06:37;7.10;99.90
23703;DHT22;12030;50.376;8.762;2024-03-22T00:09:03;7.10;99.90
23703;DHT22;12030;50.376;8.762;2024-03-22T00:11:28;7.20;99.90
23703;DHT22;12030;50.376;8.762;2024-03-22T00:13:54;7.20;99.90
23703;DHT22;12030;50.376;8.762;2024-03-22T00:16:19;7.20;99.90
23703;DHT22;12030;50.376;8.762;2024-03-22T00:18:45;7.10;99.90
23703;DHT22;12030;50.376;8.762;2024-03-22T00:21:10;7.10;99.90
23703;DHT22;12030;50.376;8.762;2024-03-22T00:23:36;6.90;99.90
23703;DHT22;12030;50.376;8.762;2024-03-22T00:26:01;6.70;99.90
23703;DHT22;12030;50.376;8.762;2024-03-22T00:28:27;6.80;99.90
23703;DHT22;12030;50.376;8.762;2024-03-22T00:30:52;6.80;99.90
23703;DHT22;12030;50.376;8.762;2024-03-22T00:33:18;6.80;99.90
23703;DHT22;12030;50.376;8.762;2024-03-22T00:35:43;6.70;99.90
23703;DHT22;12030;50.376;8.762;2024-03-22T00:38:09;6.60;99.90
23703;DHT22;12030;50.376;8.762;2024-03-22T00:40:34;6.70;99.90
23703;DHT22;12030;50.376;8.762;2024-03-22T00:43:00;6.70;99.90
23703;DHT22;12030;50.376;8.762;2024-03-22T00:45:25;6.60;99.90
23703;DHT22;12030;50.376;8.762;2024-03-22T00:47:51;6.60;99.90
23703;DHT22;12030;50.376;8.762;2024-03-22T00:50:17;6.50;99.90
23703;DHT22;12030;50.376;8.762;2024-03-22T00:52:42;6.60;99.90
23703;DHT22;12030;50.376;8.762;2024-03-22T00:55:08;6.60;99.90
23703;DHT22;12030;50.376;8.762;2024-03-22T00:57:33;6.70;99.90
23703;DHT22;12030;50.376;8.762;2024-03-22T00:59:59;6.70;99.90
23703;DHT22;12030;50.376;8.762;2024-03-22T01:02:24;6.60;99.90
23703;DHT22;12030;50.376;8.762;2024-03-22T01:04:50;6.60;99.90
23703;DHT22;12030;50.376;8.762;2024-03-22T01:07:15;6.50;99.90
23703;DHT22;12030;50.376;8.762;2024-03-22T01:09:41;6.60;99.90
23703;DHT22;12030;50.376;8.762;2024-03-22T01:12:09;6.50;99.90
23703;DHT22;12030;50.376;8.762;2024-03-22T01:14:35;6.60;99.90
23703;DHT22;12030;50.376;8.762;2024-03-22T01:17:00;6.60;99.90
23703;DHT22;12030;50.376;8.762;2024-03-22T01:19:26;6.60;99.90
23703;DHT22;12030;50.376;8.762;2024-03-22T01:21:51;6.50;99.90
23703;DHT22;12030;50.376;8.762;2024-03-22T01:24:17;6.40;99.90
23703;DHT22;12030;50.376;8.762;2024-03-22T01:26:43;6.30;99.90
23703;DHT22;12030;50.376;8.762;2024-03-22T01:29:08;6.30;99.90
23703;DHT22;12030;50.376;8.762;2024-03-22T01:31:34;6.30;99.90
23703;DHT22;12030;50.376;8.762;2024-03-22T01:33:59;6.10;99.90
23703;DHT22;12030;50.376;8.762;2024-03-22T01:36:25;6.10;99.90
23703;DHT22;12030;50.376;8.762;2024-03-22T01:38:50;6.00;99.90
23703;DHT22;12030;50.376;8.762;2024-03-22T01:41:15;6.00;99.90
23703;DHT22;12030;50.376;8.762;2024-03-22T01:43:41;6.00;99.90
23703;DHT22;12030;50.376;8.762;2024-03-22T01:46:07;5.90;99.90
23703;DHT22;12030;50.376;8.762;2024-03-22T01:48:34;5.90;99.90
23703;DHT22;12030;50.376;8.762;2024-03-22T01:51:00;6.00;99.90
23703;DHT22;12030;50.376;8.762;2024-03-22T01:53:26;6.00;99.90
23703;DHT22;12030;50.376;8.762;2024-03-22T01:55:51;5.90;99.90
23703;DHT22;12030;50.376;8.762;2024-03-22T01:58:18;5.80;99.90
23703;DHT22;12030;50.376;8.762;2024-03-22T02:00:44;5.90;99.90
23703;DHT22;12030;50.376;8.762;2024-03-22T02:03:09;5.90;99.90
23703;DHT22;12030;50.376;8.762;2024-03-22T02:05:35;6.00;99.90
23703;DHT22;12030;50.376;8.762;2024-03-22T02:08:01;5.90;99.90
23703;DHT22;12030;50.376;8.762;2024-03-22T02:10:26;5.90;99.90
23703;DHT22;12030;50.376;8.762;2024-03-22T02:12:52;5.80;99.90
23703;DHT22;12030;50.376;8.762;2024-03-22T02:15:17;5.80;99.90
23703;DHT22;12030;50.376;8.762;2024-03-22T02:17:44;5.80;99.90
23703;DHT22;12030;50.376;8.762;2024-03-22T02:20:09;5.70;99.90
23703;DHT22;12030;50.376;8.762;2024-03-22T02:22:37;5.80;99.90
23703;DHT22;12030;50.376;8.762;2024-03-22T02:25:03;5.90;99.90
23703;DHT22;12030;50.376;8.762;2024-03-22T02:27:28;5.90;99.90
23703;DHT22;12030;50.376;8.762;2024-03-22T02:29:54;5.90;99.90
23703;DHT22;12030;50.376;8.762;2024-03-22T02:32:19;5.90;99.90
23703;DHT22;12030;50.376;8.762;2024-03-22T02:34:45;5.90;99.90
23703;DHT22;12030;50.376;8.762;2024-03-22T02:37:11;5.80;99.90
23703;DHT22;12030;50.376;8.762;2024-03-22T02:39:36;5.80;99.90
23703;DHT22;12030;50.376;8.762;2024-03-22T02:42:02;5.90;99.90
23703;DHT22;12030;50.376;8.762;2024-03-22T02:44:27;5.90;99.90
23703;DHT22;12030;50.376;8.762;2024-03-22T02:46:53;5.70;99.90
23703;DHT22;12030;50.376;8.762;2024-03-22T02:49:18;5.70;99.90
23703;DHT22;12030;50.376;8.762;2024-03-22T02:51:44;5.70;99.90
23703;DHT22;12030;50.376;8.762;2024-03-22T02:54:09;5.70;99.90
23703;DHT22;12030;50.376;8.762;2024-03-22T02:56:35;5.70;99.90
23703;DHT22;12030;50.376;8.762;2024-03-22T02:59:00;5.70;99.90
23703;DHT22;12030;50.376;8.762;2024-03-22T03:01:26;5.70;99.90
23703;DHT22;12030;50.376;8.762;2024-03-22T03:03:51;5.70;99.90
23703;DHT22;12030;50.376;8.762;2024-03-22T03:06:17;5.60;99.90
23703;DHT22;12030;50.376;8.762;2024-03-22T03:08:45;5.50;99.90
23703;DHT22;12030;50.376;8.762;2024-03-22T03:11:10;5.40;99.90
23703;DHT22;12030;50.376;8.762;2024-03-22T03:13:36;5.30;99.90
23703;DHT22;12030;50.376;8.762;2024-03-22T03:16:02;5.40;99.90
23703;DHT22;12030;50.376;8.762;2024-03-22T03:18:28;5.50;99.90
23703;DHT22;12030;50.376;8.762;2024-03-22T03:20:54;5.40;99.90
23703;DHT22;12030;50.376;8.762;2024-03-22T03:23:19;5.50;99.90
23703;DHT22;12030;50.376;8.762;2024-03-22T03:25:45;5.40;99.90
23703;DHT22;12030;50.376;8.762;2024-03-22T03:28:11;5.40;99.90
23703;DHT22;12030;50.376;8.762;2024-03-22T03:30:38;5.40;99.90
23703;DHT22;12030;50.376;8.762;2024-03-22T03:33:04;5.40;99.90
23703;DHT22;12030;50.376;8.762;2024-03-22T03:35:30;5.40;99.90
23703;DHT22;12030;50.376;8.762;2024-03-22T03:37:55;5.40;99.90
23703;DHT22;12030;50.376;8.762;2024-03-22T03:40:21;5.40;99.90
23703;DHT22;12030;50.376;8.762;2024-03-22T03:42:52;5.40;99.90
23703;DHT22;12030;50.376;8.762;2024-03-22T03:45:18;5.30;99.90
23703;DHT22;12030;50.376;8.762;2024-03-22T03:47:44;5.40;99.90
23703;DHT22;12030;50.376;8.762;2024-03-22T03:50:09;5.40;99.90
23703;DHT22;12030;50.376;8.762;2024-03-22T03:52:35;5.50;99.90
23703;DHT22;12030;50.376;8.762;2024-03-22T03:55:00;5.50;99.90
23703;DHT22;12030;50.376;8.762;2024-03-22T03:57:26;5.60;99.90
23703;DHT22;12030;50.376;8.762;2024-03-22T03:59:51;5.60;99.90
23703;DHT22;12030;50.376;8.762;2024-03-22T04:02:17;5.60;99.90
23703;DHT22;12030;50.376;8.762;2024-03-22T04:04:43;5.70;99.90
23703;DHT22;12030;50.376;8.762;2024-03-22T04:07:08;5.70;99.90
23703;DHT22;12030;50.376;8.762;2024-03-22T04:09:34;5.80;99.90
23703;DHT22;12030;50.376;8.762;2024-03-22T04:12:00;5.80;99.90
23703;DHT22;12030;50.376;8.762;2024-03-22T04:14:26;5.80;99.90
23703;DHT22;12030;50.376;8.762;2024-03-22T04:16:51;5.90;99.90
23703;DHT22;12030;50.376;8.762;2024-03-22T04:19:20;6.00;99.90
23703;DHT22;12030;50.376;8.762;2024-03-22T04:21:45;6.00;99.90
23703;DHT22;12030;50.376;8.762;2024-03-22T04:24:10;6.00;99.90
23703;DHT22;12030;50.376;8.762;2024-03-22T04:26:36;6.10;99.90
23703;DHT22;12030;50.376;8.762;2024-03-22T04:29:01;6.10;99.90
23703;DHT22;12030;50.376;8.762;2024-03-22T04:31:27;6.00;99.90
23703;DHT22;12030;50.376;8.762;2024-03-22T04:33:53;6.00;99.90
23703;DHT22;12030;50.376;8.762;2024-03-22T04:36:18;6.10;99.90
23703;DHT22;12030;50.376;8.762;2024-03-22T04:38:44;6.10;99.90
23703;DHT22;12030;50.376;8.762;2024-03-22T04:41:09;6.10;99.90
23703;DHT22;12030;50.376;8.762;2024-03-22T04:43:35;6.00;99.90
23703;DHT22;12030;50.376;8.762;2024-03-22T04:46:00;6.10;99.90
23703;DHT22;12030;50.376;8.762;2024-03-22T04:48:26;6.10;99.90
23703;DHT22;12030;50.376;8.762;2024-03-22T04:50:52;6.10;99.90
23703;DHT22;12030;50.376;8.762;2024-03-22T04:53:18;6.20;99.90
23703;DHT22;12030;50.376;8.762;2024-03-22T04:55:45;6.30;99.90
23703;DHT22;12030;50.376;8.762;2024-03-22T04:58:28;6.30;99.90
23703;DHT22;12030;50.376;8.762;2024-03-22T05:00:57;6.40;99.90
23703;DHT22;12030;50.376;8.762;2024-03-22T05:03:23;6.40;99.90
23703;DHT22;12030;50.376;8.762;2024-03-22T05:05:49;6.40;99.90
23703;DHT22;12030;50.376;8.762;2024-03-22T05:08:15;6.50;99.90
23703;DHT22;12030;50.376;8.762;2024-03-22T05:10:40;6.60;99.90
23703;DHT22;12030;50.376;8.762;2024-03-22T05:13:07;6.60;99.90
23703;DHT22;12030;50.376;8.762;2024-03-22T05:15:33;6.60;99.90
23703;DHT22;12030;50.376;8.762;2024-03-22T05:17:59;6.60;99.90
23703;DHT22;12030;50.376;8.762;2024-03-22T05:20:25;6.70;99.90
23703;DHT22;12030;50.376;8.762;2024-03-22T05:22:50;6.60;99.90
23703;DHT22;12030;50.376;8.762;2024-03-22T05:25:16;6.60;99.90
23703;DHT22;12030;50.376;8.762;2024-03-22T05:27:42;6.60;99.90
23703;DHT22;12030;50.376;8.762;2024-03-22T05:30:09;6.70;99.90
23703;DHT22;12030;50.376;8.762;2024-03-22T05:32:35;6.70;99.90
23703;DHT22;12030;50.376;8.762;2024-03-22T05:35:00;6.80;99.90
23703;DHT22;12030;50.376;8.762;2024-03-22T05:37:26;6.80;99.90
23703;DHT22;12030;50.376;8.762;2024-03-22T05:39:52;6.80;99.90
23703;DHT22;12030;50.376;8.762;2024-03-22T05:42:17;6.90;99.90
23703;DHT22;12030;50.376;8.762;2024-03-22T05:44:44;7.00;99.90
23703;DHT22;12030;50.376;8.762;2024-03-22T05:47:09;7.00;99.90
23703;DHT22;12030;50.376;8.762;2024-03-22T05:49:35;7.00;99.90
23703;DHT22;12030;50.376;8.762;2024-03-22T05:52:01;7.00;99.90
23703;DHT22;12030;50.376;8.762;2024-03-22T05:54:26;7.00;99.90
23703;DHT22;12030;50.376;8.762;2024-03-22T05:56:52;7.00;99.90
23703;DHT22;12030;50.376;8.762;2024-03-22T05:59:17;7.00;99.90
23703;DHT22;12030;50.376;8.762;2024-03-22T06:01:43;7.10;99.90
23703;DHT22;12030;50.376;8.762;2024-03-22T06:04:08;7.20;99.90
23703;DHT22;12030;50.376;8.762;2024-03-22T06:06:35;7.20;99.90
23703;DHT22;12030;50.376;8.762;2024-03-22T06:09:00;7.20;99.90
23703;DHT22;12030;50.376;8.762;2024-03-22T06:11:29;7.30;99.90
23703;DHT22;12030;50.376;8.762;2024-03-22T06:13:55;7.30;99.90
23703;DHT22;12030;50.376;8.762;2024-03-22T06:16:20;7.30;99.90
23703;DHT22;12030;50.376;8.762;2024-03-22T06:18:46;7.40;99.90
23703;DHT22;12030;50.376;8.762;2024-03-22T06:21:12;7.50;99.90
23703;DHT22;12030;50.376;8.762;2024-03-22T06:23:40;7.60;99.90
23703;DHT22;12030;50.376;8.762;2024-03-22T06:26:05;7.70;99.90
23703;DHT22;12030;50.376;8.762;2024-03-22T06:28:31;7.80;99.90
23703;DHT22;12030;50.376;8.762;2024-03-22T06:30:56;8.00;99.90
23703;DHT22;12030;50.376;8.762;2024-03-22T06:33:22;8.10;99.90
23703;DHT22;12030;50.376;8.762;2024-03-22T06:35:47;8.10;99.90
23703;DHT22;12030;50.376;8.762;2024-03-22T06:38:13;8.20;99.90
23703;DHT22;12030;50.376;8.762;2024-03-22T06:40:39;8.20;99.90
23703;DHT22;12030;50.376;8.762;2024-03-22T06:43:04;8.30;99.90
23703;DHT22;12030;50.376;8.762;2024-03-22T06:45:30;8.40;99.90
23703;DHT22;12030;50.376;8.762;2024-03-22T06:47:55;8.40;99.90
23703;DHT22;12030;50.376;8.762;2024-03-22T06:50:21;8.50;99.90
23703;DHT22;12030;50.376;8.762;2024-03-22T06:52:53;8.60;99.90
23703;DHT22;12030;50.376;8.762;2024-03-22T06:55:19;8.60;99.90
23703;DHT22;12030;50.376;8.762;2024-03-22T06:57:47;8.60;99.90
23703;DHT22;12030;50.376;8.762;2024-03-22T07:00:13;8.70;99.90
23703;DHT22;12030;50.376;8.762;2024-03-22T07:02:39;8.70;99.90
23703;DHT22;12030;50.376;8.762;2024-03-22T07:05:08;8.70;99.90
23703;DHT22;12030;50.376;8.762;2024-03-22T07:07:34;8.80;99.90
23703;DHT22;12030;50.376;8.762;2024-03-22T07:10:00;8.80;99.90
23703;DHT22;12030;50.376;8.762;2024-03-22T07:12:25;8.80;99.90
23703;DHT22;12030;50.376;8.762;2024-03-22T07:14:51;8.90;99.90
23703;DHT22;12030;50.376;8.762;2024-03-22T07:17:16;8.90;99.90
23703;DHT22;12030;50.376;8.762;2024-03-22T07:19:42;9.00;99.90
23703;DHT22;12030;50.376;8.762;2024-03-22T07:22:08;9.00;99.90
23703;DHT22;12030;50.376;8.762;2024-03-22T07:24:33;9.10;99.90
23703;DHT22;12030;50.376;8.762;2024-03-22T07:26:59;9.10;99.90
23703;DHT22;12030;50.376;8.762;2024-03-22T07:29:24;9.10;99.90
23703;DHT22;12030;50.376;8.762;2024-03-22T07:31:50;9.20;99.90
23703;DHT22;12030;50.376;8.762;2024-03-22T07:34:15;9.20;99.90
23703;DHT22;12030;50.376;8.762;2024-03-22T07:36:41;9.30;99.90
23703;DHT22;12030;50.376;8.762;2024-03-22T07:39:06;9.30;99.90
23703;DHT22;12030;50.376;8.762;2024-03-22T07:41:33;9.30;99.90
23703;DHT22;12030;50.376;8.762;2024-03-22T07:43:59;9.40;99.90
23703;DHT22;12030;50.376;8.762;2024-03-22T07:46:26;9.50;99.90
23703;DHT22;12030;50.376;8.762;2024-03-22T07:48:52;9.60;99.90
23703;DHT22;12030;50.376;8.762;2024-03-22T07:51:17;9.70;99.90
23703;DHT22;12030;50.376;8.762;2024-03-22T07:53:43;9.80;99.90
23703;DHT22;12030;50.376;8.762;2024-03-22T07:56:08;9.80;99.90
23703;DHT22;12030;50.376;8.762;2024-03-22T07:58:34;10.00;99.90
23703;DHT22;12030;50.376;8.762;2024-03-22T08:00:59;10.00;99.90
23703;DHT22;12030;50.376;8.762;2024-03-22T08:03:25;10.10;99.90
23703;DHT22;12030;50.376;8.762;2024-03-22T08:05:51;10.20;99.90
23703;DHT22;12030;50.376;8.762;2024-03-22T08:08:16;10.30;99.90
23703;DHT22;12030;50.376;8.762;2024-03-22T08:10:43;10.40;99.90
23703;DHT22;12030;50.376;8.762;2024-03-22T08:13:08;10.50;99.90
23703;DHT22;12030;50.376;8.762;2024-03-22T08:15:35;10.60;99.90
23703;DHT22;12030;50.376;8.762;2024-03-22T08:18:01;10.60;99.90
23703;DHT22;12030;50.376;8.762;2024-03-22T08:20:26;10.70;99.90
23703;DHT22;12030;50.376;8.762;2024-03-22T08:22:52;10.70;99.90
23703;DHT22;12030;50.376;8.762;2024-03-22T08:25:17;10.80;99.90
23703;DHT22;12030;50.376;8.762;2024-03-22T08:27:45;10.90;99.90
23703;DHT22;12030;50.376;8.762;2024-03-22T08:30:11;10.90;99.90
23703;DHT22;12030;50.376;8.762;2024-03-22T08:32:37;10.90;99.90
23703;DHT22;12030;50.376;8.762;2024-03-22T08:35:03;10.90;99.90
23703;DHT22;12030;50.376;8.762;2024-03-22T08:37:29;10.90;99.90
23703;DHT22;12030;50.376;8.762;2024-03-22T08:39:55;11.10;99.90
23703;DHT22;12030;50.376;8.762;2024-03-22T08:42:21;11.20;99.90
23703;DHT22;12030;50.376;8.762;2024-03-22T08:44:46;11.30;99.90
23703;DHT22;12030;50.376;8.762;2024-03-22T08:47:11;11.50;99.90
23703;DHT22;12030;50.376;8.762;2024-03-22T08:49:37;11.60;99.90
23703;DHT22;12030;50.376;8.762;2024-03-22T08:52:03;11.60;99.90
23703;DHT22;12030;50.376;8.762;2024-03-22T08:54:28;11.70;99.90
23703;DHT22;12030;50.376;8.762;2024-03-22T08:56:54;11.70;99.90
23703;DHT22;12030;50.376;8.762;2024-03-22T08:59:19;11.70;99.90
23703;DHT22;12030;50.376;8.762;2024-03-22T09:01:45;11.70;99.90
23703;DHT22;12030;50.376;8.762;2024-03-22T09:04:10;11.70;99.90
23703;DHT22;12030;50.376;8.762;2024-03-22T09:06:36;11.80;99.90
23703;DHT22;12030;50.376;8.762;2024-03-22T09:09:01;11.90;99.90
23703;DHT22;12030;50.376;8.762;2024-03-22T09:11:28;12.00;99.90
23703;DHT22;12030;50.376;8.762;2024-03-22T09:13:54;12.10;99.90
23703;DHT22;12030;50.376;8.762;2024-03-22T09:16:20;12.20;99.90
23703;DHT22;12030;50.376;8.762;2024-03-22T09:18:46;12.30;99.90
23703;DHT22;12030;50.376;8.762;2024-03-22T09:21:11;12.40;99.90
23703;DHT22;12030;50.376;8.762;2024-03-22T09:23:37;12.50;99.90
23703;DHT22;12030;50.376;8.762;2024-03-22T09:26:02;12.60;99.90
23703;DHT22;12030;50.376;8.762;2024-03-22T09:28:28;12.80;99.90
23703;DHT22;12030;50.376;8.762;2024-03-22T09:30:54;12.90;99.90
23703;DHT22;12030;50.376;8.762;2024-03-22T09:33:19;13.00;99.90
23703;DHT22;12030;50.376;8.762;2024-03-22T09:35:45;13.00;99.90
23703;DHT22;12030;50.376;8.762;2024-03-22T09:38:10;13.10;99.90
23703;DHT22;12030;50.376;8.762;2024-03-22T09:40:39;13.20;99.90
23703;DHT22;12030;50.376;8.762;2024-03-22T09:43:06;13.20;99.90
23703;DHT22;12030;50.376;8.762;2024-03-22T09:45:32;13.20;99.90
23703;DHT22;12030;50.376;8.762;2024-03-22T09:47:58;13.30;99.90
23703;DHT22;12030;50.376;8.762;2024-03-22T09:50:24;13.40;99.90
23703;DHT22;12030;50.376;8.762;2024-03-22T09:52:52;13.50;99.90
23703;DHT22;12030;50.376;8.762;2024-03-22T09:55:22;13.60;99.90
23703;DHT22;12030;50.376;8.762;2024-03-22T09:57:49;13.80;99.90
23703;DHT22;12030;50.376;8.762;2024-03-22T10:00:18;13.90;99.90
23703;DHT22;12030;50.376;8.762;2024-03-22T10:02:45;13.90;99.90
23703;DHT22;12030;50.376;8.762;2024-03-22T10:05:11;14.00;99.90
23703;DHT22;12030;50.376;8.762;2024-03-22T10:07:37;14.10;99.90
23703;DHT22;12030;50.376;8.762;2024-03-22T10:10:03;14.10;99.90
23703;DHT22;12030;50.376;8.762;2024-03-22T10:12:29;14.20;99.90
23703;DHT22;12030;50.376;8.762;2024-03-22T10:14:54;14.20;99.90
23703;DHT22;12030;50.376;8.762;2024-03-22T10:17:20;14.30;99.90
23703;DHT22;12030;50.376;8.762;2024-03-22T10:19:47;14.50;99.90
23703;DHT22;12030;50.376;8.762;2024-03-22T10:22:16;14.70;99.90
23703;DHT22;12030;50.376;8.762;2024-03-22T10:24:44;15.00;99.90
23703;DHT22;12030;50.376;8.762;2024-03-22T10:27:10;15.10;99.90
23703;DHT22;12030;50.376;8.762;2024-03-22T10:29:36;15.10;99.90
23703;DHT22;12030;50.376;8.762;2024-03-22T10:32:02;15.20;99.90
23703;DHT22;12030;50.376;8.762;2024-03-22T10:34:28;15.30;99.90
23703;DHT22;12030;50.376;8.762;2024-03-22T10:36:55;15.60;99.90
23703;DHT22;12030;50.376;8.762;2024-03-22T10:39:22;15.70;99.90
23703;DHT22;12030;50.376;8.762;2024-03-22T10:41:48;15.70;99.90
23703;DHT22;12030;50.376;8.762;2024-03-22T10:44:15;15.60;99.90
23703;DHT22;12030;50.376;8.762;2024-03-22T10:46:45;15.70;99.90
23703;DHT22;12030;50.376;8.762;2024-03-22T10:49:20;15.80;99.90
23703;DHT22;12030;50.376;8.762;2024-03-22T10:51:52;15.80;99.90
23703;DHT22;12030;50.376;8.762;2024-03-22T10:54:24;15.80;99.90
23703;DHT22;12030;50.376;8.762;2024-03-22T10:56:51;15.80;99.90
23703;DHT22;12030;50.376;8.762;2024-03-22T10:59:23;15.80;99.90
23703;DHT22;12030;50.376;8.762;2024-03-22T11:01:49;15.70;99.90
23703;DHT22;12030;50.376;8.762;2024-03-22T11:04:17;15.70;99.90
23703;DHT22;12030;50.376;8.762;2024-03-22T11:06:49;15.60;99.90
23703;DHT22;12030;50.376;8.762;2024-03-22T11:09:21;15.70;99.90
23703;DHT22;12030;50.376;8.762;2024-03-22T11:11:47;15.90;99.90
23703;DHT22;12030;50.376;8.762;2024-03-22T11:14:13;15.80;99.90
23703;DHT22;12030;50.376;8.762;2024-03-22T11:16:38;15.80;99.90
23703;DHT22;12030;50.376;8.762;2024-03-22T11:19:04;15.90;99.90
23703;DHT22;12030;50.376;8.762;2024-03-22T11:21:32;15.90;99.90
23703;DHT22;12030;50.376;8.762;2024-03-22T11:24:00;16.00;99.90
23703;DHT22;12030;50.376;8.762;2024-03-22T11:26:26;16.00;99.90
23703;DHT22;12030;50.376;8.762;2024-03-22T11:28:51;15.90;99.90
23703;DHT22;12030;50.376;8.762;2024-03-22T11:31:17;16.00;99.90
23703;DHT22;12030;50.376;8.762;2024-03-22T11:33:45;16.00;99.90
23703;DHT22;12030;50.376;8.762;2024-03-22T11:36:11;16.00;99.90
23703;DHT22;12030;50.376;8.762;2024-03-22T11:38:36;16.10;99.90
23703;DHT22;12030;50.376;8.762;2024-03-22T11:41:02;16.30;99.90
23703;DHT22;12030;50.376;8.762;2024-03-22T11:43:29;16.50;99.90
23703;DHT22;12030;50.376;8.762;2024-03-22T11:45:55;16.50;99.90
23703;DHT22;12030;50.376;8.762;2024-03-22T11:48:22;16.50;99.90
23703;DHT22;12030;50.376;8.762;2024-03-22T11:50:48;16.40;99.90
23703;DHT22;12030;50.376;8.762;2024-03-22T11:53:16;16.50;99.90
23703;DHT22;12030;50.376;8.762;2024-03-22T11:55:42;16.40;99.90
23703;DHT22;12030;50.376;8.762;2024-03-22T11:58:12;16.50;99.90
23703;DHT22;12030;50.376;8.762;2024-03-22T12:00:38;16.60;99.90
23703;DHT22;12030;50.376;8.762;2024-03-22T12:03:07;16.70;99.90
23703;DHT22;12030;50.376;8.762;2024-03-22T12:05:32;16.80;99.90
23703;DHT22;12030;50.376;8.762;2024-03-22T12:07:58;16.80;99.90
23703;DHT22;12030;50.376;8.762;2024-03-22T12:10:23;16.80;99.90
23703;DHT22;12030;50.376;8.762;2024-03-22T12:12:49;16.90;99.90
23703;DHT22;12030;50.376;8.762;2024-03-22T12:15:15;17.00;99.90
23703;DHT22;12030;50.376;8.762;2024-03-22T12:17:40;17.10;99.90
23703;DHT22;12030;50.376;8.762;2024-03-22T12:20:08;17.10;99.90
23703;DHT22;12030;50.376;8.762;2024-03-22T12:22:35;17.10;99.90
23703;DHT22;12030;50.376;8.762;2024-03-22T12:25:00;17.20;99.90
23703;DHT22;12030;50.376;8.762;2024-03-22T12:27:26;17.10;99.90
23703;DHT22;12030;50.376;8.762;2024-03-22T12:29:51;17.00;99.90
23703;DHT22;12030;50.376;8.762;2024-03-22T12:32:17;17.00;99.90
23703;DHT22;12030;50.376;8.762;2024-03-22T12:34:43;17.00;99.90
23703;DHT22;12030;50.376;8.762;2024-03-22T12:37:09;17.10;99.90
23703;DHT22;12030;50.376;8.762;2024-03-22T12:39:35;17.10;99.90
23703;DHT22;12030;50.376;8.762;2024-03-22T12:42:00;17.20;99.90
23703;DHT22;12030;50.376;8.762;2024-03-22T12:44:26;17.20;99.90
23703;DHT22;12030;50.376;8.762;2024-03-22T12:46:52;17.20;99.90
23703;DHT22;12030;50.376;8.762;2024-03-22T12:49:19;17.20;99.90
23703;DHT22;12030;50.376;8.762;2024-03-22T12:51:45;17.20;99.90
23703;DHT22;12030;50.376;8.762;2024-03-22T12:54:11;17.10;99.90
23703;DHT22;12030;50.376;8.762;2024-03-22T12:56:37;17.10;99.90
23703;DHT22;12030;50.376;8.762;2024-03-22T12:59:04;17.10;99.90
23703;DHT22;12030;50.376;8.762;2024-03-22T13:01:30;17.10;99.90
23703;DHT22;12030;50.376;8.762;2024-03-22T13:03:56;17.20;99.90
23703;DHT22;12030;50.376;8.762;2024-03-22T13:06:22;17.30;99.90
23703;DHT22;12030;50.376;8.762;2024-03-22T13:08:47;17.40;99.90
23703;DHT22;12030;50.376;8.762;2024-03-22T13:11:13;17.40;99.90
23703;DHT22;12030;50.376;8.762;2024-03-22T13:13:39;17.50;99.90
23703;DHT22;12030;50.376;8.762;2024-03-22T13:16:05;17.30;99.90
23703;DHT22;12030;50.376;8.762;2024-03-22T13:18:32;17.20;99.90
23703;DHT22;12030;50.376;8.762;2024-03-22T13:20:57;17.20;99.90
23703;DHT22;12030;50.376;8.762;2024-03-22T13:23:23;17.20;99.90
23703;DHT22;12030;50.376;8.762;2024-03-22T13:25:49;17.20;99.90
23703;DHT22;12030;50.376;8.762;2024-03-22T13:28:15;17.20;99.90
23703;DHT22;12030;50.376;8.762;2024-03-22T13:30:45;17.20;99.90
23703;DHT22;12030;50.376;8.762;2024-03-22T13:33:11;17.10;99.90
23703;DHT22;12030;50.376;8.762;2024-03-22T13:35:36;17.10;99.90
23703;DHT22;12030;50.376;8.762;2024-03-22T13:38:02;17.10;99.90
23703;DHT22;12030;50.376;8.762;2024-03-22T13:40:27;17.20;99.90
23703;DHT22;12030;50.376;8.762;2024-03-22T13:42:54;17.10;99.90
23703;DHT22;12030;50.376;8.762;2024-03-22T13:45:19;17.20;99.90
23703;DHT22;12030;50.376;8.762;2024-03-22T13:47:45;17.10;99.90
23703;DHT22;12030;50.376;8.762;2024-03-22T13:50:11;17.10;99.90
23703;DHT22;12030;50.376;8.762;2024-03-22T13:52:37;17.20;99.90
23703;DHT22;12030;50.376;8.762;2024-03-22T13:55:03;17.20;99.90
23703;DHT22;12030;50.376;8.762;2024-03-22T13:57:30;17.20;99.90
23703;DHT22;12030;50.376;8.762;2024-03-22T13:59:55;17.20;99.90
23703;DHT22;12030;50.376;8.762;2024-03-22T14:02:21;17.00;99.90
23703;DHT22;12030;50.376;8.762;2024-03-22T14:04:47;17.00;99.90
23703;DHT22;12030;50.376;8.762;2024-03-22T14:07:12;16.90;99.90
23703;DHT22;12030;50.376;8.762;2024-03-22T14:09:38;16.80;99.90
23703;DHT22;12030;50.376;8.762;2024-03-22T14:12:05;16.70;99.90
23703;DHT22;12030;50.376;8.762;2024-03-22T14:14:31;16.70;99.90
23703;DHT22;12030;50.376;8.762;2024-03-22T14:16:57;16.70;99.90
23703;DHT22;12030;50.376;8.762;2024-03-22T14:19:23;16.60;99.90
23703;DHT22;12030;50.376;8.762;2024-03-22T14:21:49;16.60;99.90
23703;DHT22;12030;50.376;8.762;2024-03-22T14:24:15;16.60;99.90
23703;DHT22;12030;50.376;8.762;2024-03-22T14:26:41;16.60;99.90
23703;DHT22;12030;50.376;8.762;2024-03-22T14:29:11;16.50;99.90
23703;DHT22;12030;50.376;8.762;2024-03-22T14:31:37;16.50;99.90
23703;DHT22;12030;50.376;8.762;2024-03-22T14:34:04;16.50;99.90
23703;DHT22;12030;50.376;8.762;2024-03-22T14:36:30;16.50;99.90
23703;DHT22;12030;50.376;8.762;2024-03-22T14:38:56;16.40;99.90
23703;DHT22;12030;50.376;8.762;2024-03-22T14:41:21;16.40;99.90
23703;DHT22;12030;50.376;8.762;2024-03-22T14:43:47;16.40;99.90
23703;DHT22;12030;50.376;8.762;2024-03-22T14:46:13;16.40;99.90
23703;DHT22;12030;50.376;8.762;2024-03-22T14:48:38;16.40;99.90
23703;DHT22;12030;50.376;8.762;2024-03-22T14:51:04;16.40;99.90
23703;DHT22;12030;50.376;8.762;2024-03-22T14:53:29;16.40;99.90
23703;DHT22;12030;50.376;8.762;2024-03-22T14:56:02;16.30;99.90
23703;DHT22;12030;50.376;8.762;2024-03-22T14:58:31;16.30;99.90
23703;DHT22;12030;50.376;8.762;2024-03-22T15:00:59;16.40;99.90
23703;DHT22;12030;50.376;8.762;2024-03-22T15:03:25;16.30;99.90
23703;DHT22;12030;50.376;8.762;2024-03-22T15:05:51;16.30;99.90
23703;DHT22;12030;50.376;8.762;2024-03-22T15:08:17;16.30;99.90
23703;DHT22;12030;50.376;8.762;2024-03-22T15:10:43;16.20;99.90
23703;DHT22;12030;50.376;8.762;2024-03-22T15:13:09;16.20;99.90
23703;DHT22;12030;50.376;8.762;2024-03-22T15:15:36;16.10;99.90
23703;DHT22;12030;50.376;8.762;2024-03-22T15:18:02;16.10;99.90
23703;DHT22;12030;50.376;8.762;2024-03-22T15:20:27;16.00;99.90
23703;DHT22;12030;50.376;8.762;2024-03-22T15:22:54;16.00;99.90
23703;DHT22;12030;50.376;8.762;2024-03-22T15:25:20;16.10;99.90
23703;DHT22;12030;50.376;8.762;2024-03-22T15:27:45;16.10;99.90
23703;DHT22;12030;50.376;8.762;2024-03-22T15:30:11;16.10;99.90